createdAt,value
2022-11-05T00:00:41.759Z,7.70
2022-11-05T00:04:05.054Z,7.70
2022-11-05T00:07:38.225Z,7.68
2022-11-05T00:10:42.721Z,7.70
2022-11-05T00:14:05.362Z,7.69
2022-11-05T00:17:09.963Z,7.68
2022-11-05T00:20:14.758Z,7.66
2022-11-05T00:23:37.451Z,7.66
2022-11-05T00:26:41.596Z,7.64
2022-11-05T00:29:45.855Z,7.63
2022-11-05T00:32:51.104Z,7.59
2022-11-05T00:35:55.641Z,7.59
2022-11-05T00:39:00.068Z,7.64
2022-11-05T00:42:23.540Z,7.64
2022-11-05T00:45:30.074Z,7.64
2022-11-05T00:48:53.137Z,7.63
2022-11-05T00:52:16.057Z,7.62
2022-11-05T00:55:24.334Z,7.62
2022-11-05T00:58:29.270Z,7.62
2022-11-05T01:01:34.028Z,7.56
2022-11-05T01:04:38.674Z,7.53
2022-11-05T01:07:43.133Z,7.51
2022-11-05T01:10:51.721Z,7.48
2022-11-05T01:13:56.262Z,7.47
2022-11-05T01:17:00.584Z,7.46
2022-11-05T01:20:05.779Z,7.44
2022-11-05T01:23:13.785Z,7.42
2022-11-05T01:26:18.724Z,7.44
2022-11-05T01:29:23.309Z,7.43
2022-11-05T01:32:30.664Z,7.42
2022-11-05T01:35:35.260Z,7.43
2022-11-05T01:38:39.611Z,7.44
2022-11-05T01:41:43.873Z,7.43
2022-11-05T01:45:04.555Z,7.42
2022-11-05T01:48:25.741Z,7.39
2022-11-05T01:51:31.014Z,7.38
2022-11-05T01:54:36.008Z,7.39
2022-11-05T01:57:41.054Z,7.37
2022-11-05T02:00:45.732Z,7.36
2022-11-05T02:03:53.544Z,7.36
2022-11-05T02:06:59.181Z,7.31
2022-11-05T02:10:07.156Z,7.32
2022-11-05T02:13:11.953Z,7.30
2022-11-05T02:16:46.622Z,7.29
2022-11-05T02:20:42.462Z,7.29
2022-11-05T02:24:27.166Z,7.27
2022-11-05T02:28:15.024Z,7.25
2022-11-05T02:31:40.749Z,7.26
2022-11-05T02:35:03.004Z,7.23
2022-11-05T02:38:31.416Z,7.21
2022-11-05T02:42:05.297Z,7.18
2022-11-05T02:45:19.574Z,7.16
2022-11-05T02:48:40.954Z,7.13
2022-11-05T02:51:56.196Z,7.09
2022-11-05T02:55:31.228Z,7.07
2022-11-05T02:58:35.799Z,7.05
2022-11-05T03:01:41.616Z,7.01
2022-11-05T03:04:46.530Z,7.01
2022-11-05T03:08:01.419Z,6.99
2022-11-05T03:11:18.069Z,6.96
2022-11-05T03:14:49.200Z,6.98
2022-11-05T03:18:03.833Z,6.97
2022-11-05T03:21:27.825Z,6.93
2022-11-05T03:24:40.968Z,6.91
2022-11-05T03:27:50.163Z,6.86
2022-11-05T03:30:58.240Z,6.85
2022-11-05T03:34:05.771Z,6.85
2022-11-05T03:37:11.645Z,6.85
2022-11-05T03:40:18.298Z,6.84
2022-11-05T03:43:28.607Z,6.81
2022-11-05T03:46:49.244Z,6.80
2022-11-05T03:50:22.612Z,6.81
2022-11-05T03:53:31.691Z,6.80
2022-11-05T03:56:56.981Z,6.81
2022-11-05T04:00:01.687Z,6.80
2022-11-05T04:03:06.075Z,6.82
2022-11-05T04:06:29.592Z,6.83
2022-11-05T04:09:52.610Z,6.83
2022-11-05T04:13:15.674Z,6.82
2022-11-05T04:16:38.819Z,6.83
2022-11-05T04:20:03.457Z,6.81
2022-11-05T04:23:26.506Z,6.80
2022-11-05T04:26:30.742Z,6.78
2022-11-05T04:29:53.394Z,6.78
2022-11-05T04:33:10.939Z,6.78
2022-11-05T04:36:16.059Z,6.76
2022-11-05T04:39:21.483Z,6.77
2022-11-05T04:42:25.736Z,6.79
2022-11-05T04:45:34.389Z,6.81
2022-11-05T04:48:38.952Z,6.77
2022-11-05T04:51:43.296Z,6.77
2022-11-05T04:54:47.461Z,6.78
2022-11-05T04:57:53.462Z,6.76
2022-11-05T05:00:57.829Z,6.75
2022-11-05T05:04:01.765Z,6.68
2022-11-05T05:07:06.154Z,6.66
2022-11-05T05:10:11.808Z,6.66
2022-11-05T05:13:16.339Z,6.66
2022-11-05T05:16:24.911Z,6.64
2022-11-05T05:19:29.075Z,6.62
2022-11-05T05:22:33.608Z,6.60
2022-11-05T05:25:37.884Z,6.60
2022-11-05T05:28:42.141Z,6.57
2022-11-05T05:31:46.381Z,6.55
2022-11-05T05:34:51.834Z,6.55
2022-11-05T05:37:56.856Z,6.53
2022-11-05T05:41:01.438Z,6.51
2022-11-05T05:44:06.776Z,6.48
2022-11-05T05:47:11.143Z,6.48
2022-11-05T05:50:15.490Z,6.44
2022-11-05T05:53:20.045Z,6.43
2022-11-05T05:56:24.157Z,6.40
2022-11-05T05:59:28.643Z,6.38
2022-11-05T06:02:32.824Z,6.35
2022-11-05T06:05:37.423Z,6.35
2022-11-05T06:08:42.709Z,6.34
2022-11-05T06:11:47.239Z,6.32
2022-11-05T06:14:51.387Z,6.33
2022-11-05T06:17:55.837Z,6.29
2022-11-05T06:21:14.163Z,6.27
2022-11-05T06:24:18.431Z,6.25
2022-11-05T06:27:23.755Z,6.23
2022-11-05T06:30:28.008Z,6.24
2022-11-05T06:33:32.415Z,6.25
2022-11-05T06:36:36.726Z,6.27
2022-11-05T06:39:41.143Z,6.26
2022-11-05T06:42:46.929Z,6.25
2022-11-05T06:45:51.827Z,6.24
2022-11-05T06:48:56.332Z,6.23
2022-11-05T06:52:00.761Z,6.22
2022-11-05T06:55:06.024Z,6.23
2022-11-05T06:58:10.731Z,6.25
2022-11-05T07:01:15.319Z,6.27
2022-11-05T07:04:19.804Z,6.31
2022-11-05T07:07:24.274Z,6.34
2022-11-05T07:10:29.087Z,6.34
2022-11-05T07:13:33.823Z,6.37
2022-11-05T07:16:39.334Z,6.38
2022-11-05T07:19:43.878Z,6.40
2022-11-05T07:22:48.394Z,6.44
2022-11-05T07:25:52.758Z,6.45
2022-11-05T07:28:57.285Z,6.46
2022-11-05T07:32:01.811Z,6.46
2022-11-05T07:35:08.693Z,6.49
2022-11-05T07:38:13.204Z,6.50
2022-11-05T07:41:17.294Z,6.54
2022-11-05T07:44:22.246Z,6.57
2022-11-05T07:47:26.848Z,6.62
2022-11-05T07:50:35.109Z,6.69
2022-11-05T07:53:44.919Z,6.76
2022-11-05T07:56:50.006Z,6.86
2022-11-05T07:59:54.696Z,6.93
2022-11-05T08:03:14.442Z,6.97
2022-11-05T08:06:19.084Z,7.06
2022-11-05T08:09:23.437Z,7.21
2022-11-05T08:12:27.670Z,7.34
2022-11-05T08:15:32.868Z,7.43
2022-11-05T08:18:37.704Z,7.54
2022-11-05T08:21:42.515Z,7.66
2022-11-05T08:24:46.852Z,7.77
2022-11-05T08:28:13.568Z,7.83
2022-11-05T08:31:18.207Z,7.89
2022-11-05T08:34:22.287Z,7.91
2022-11-05T08:37:26.305Z,7.88
2022-11-05T08:40:32.968Z,7.86
2022-11-05T08:43:37.556Z,7.91
2022-11-05T08:46:42.083Z,7.93
2022-11-05T08:49:46.695Z,7.98
2022-11-05T08:52:50.627Z,8.02
2022-11-05T08:55:58.332Z,8.12
2022-11-05T08:59:02.615Z,8.20
2022-11-05T09:02:09.903Z,8.29
2022-11-05T09:05:14.827Z,8.32
2022-11-05T09:08:19.597Z,8.40
2022-11-05T09:11:33.134Z,8.47
2022-11-05T09:14:47.753Z,8.51
2022-11-05T09:17:52.522Z,8.58
2022-11-05T09:20:56.622Z,8.64
2022-11-05T09:24:01.226Z,8.67
2022-11-05T09:27:06.823Z,8.70
2022-11-05T09:30:13.649Z,8.73
2022-11-05T09:33:24.986Z,8.83
2022-11-05T09:36:29.234Z,8.90
2022-11-05T09:39:33.905Z,8.96
2022-11-05T09:42:43.731Z,8.97
2022-11-05T09:45:54.108Z,9.02
2022-11-05T09:49:06.108Z,9.13
2022-11-05T09:52:19.912Z,9.26
2022-11-05T09:55:42.465Z,9.35
2022-11-05T09:59:21.814Z,9.40
2022-11-05T10:02:47.576Z,9.53
2022-11-05T10:05:53.999Z,9.69
2022-11-05T10:09:18.934Z,9.94
2022-11-05T10:12:53.688Z,10.21
2022-11-05T10:16:09.255Z,10.44
2022-11-05T10:19:24.787Z,10.81
2022-11-05T10:22:29.223Z,11.17
2022-11-05T10:25:39.438Z,11.21
2022-11-05T10:28:43.818Z,10.90
2022-11-05T10:31:48.921Z,10.81
2022-11-05T10:34:57.164Z,10.85
2022-11-05T10:38:02.556Z,10.85
2022-11-05T10:41:28.812Z,10.78
2022-11-05T10:44:48.497Z,10.55
2022-11-05T10:48:49.194Z,10.55
2022-11-05T10:51:58.074Z,10.67
2022-11-05T10:55:14.882Z,10.85
2022-11-05T10:58:29.080Z,10.99
2022-11-05T11:01:34.221Z,11.00
2022-11-05T11:04:38.612Z,10.97
2022-11-05T11:07:43.165Z,11.05
2022-11-05T11:11:02.215Z,11.20
2022-11-05T11:14:22.334Z,11.20
2022-11-05T11:17:32.486Z,11.26
2022-11-05T11:20:45.529Z,11.30
2022-11-05T11:23:58.290Z,11.35
2022-11-05T11:27:06.703Z,11.35
2022-11-05T11:30:20.175Z,11.28
2022-11-05T11:33:27.714Z,11.14
2022-11-05T11:36:48.752Z,11.04
2022-11-05T11:40:20.971Z,11.08
2022-11-05T11:43:33.880Z,11.13
2022-11-05T11:46:42.745Z,11.24
2022-11-05T11:49:59.220Z,11.32
2022-11-05T11:53:26.514Z,11.28
2022-11-05T11:56:43.555Z,11.37
2022-11-05T12:00:07.767Z,11.46
2022-11-05T12:03:24.261Z,11.57
2022-11-05T12:06:54.164Z,11.72
2022-11-05T12:10:36.446Z,11.74
2022-11-05T12:14:18.536Z,11.76
2022-11-05T12:17:51.404Z,11.71
2022-11-05T12:21:29.459Z,11.83
2022-11-05T12:25:23.193Z,11.86
2022-11-05T12:29:17.123Z,12.00
2022-11-05T12:32:37.343Z,12.02
2022-11-05T12:35:58.255Z,11.95
2022-11-05T12:39:37.050Z,11.93
2022-11-05T12:43:10.515Z,11.94
2022-11-05T12:47:19.585Z,11.90
2022-11-05T12:50:49.657Z,11.90
2022-11-05T12:54:51.429Z,11.84
2022-11-05T12:58:11.888Z,11.83
2022-11-05T13:01:33.356Z,11.72
2022-11-05T13:04:53.283Z,11.63
2022-11-05T13:08:28.624Z,11.64
2022-11-05T13:12:03.129Z,11.63
2022-11-05T13:15:23.592Z,11.62
2022-11-05T13:18:55.609Z,11.64
2022-11-05T13:22:17.383Z,11.72
2022-11-05T13:25:25.624Z,11.79
2022-11-05T13:28:48.362Z,11.80
2022-11-05T13:32:02.828Z,11.79
2022-11-05T13:35:15.953Z,11.70
2022-11-05T13:38:44.694Z,11.65
2022-11-05T13:42:01.279Z,11.61
2022-11-05T13:45:52.199Z,11.61
2022-11-05T13:49:31.461Z,11.65
2022-11-05T13:53:09.412Z,11.69
2022-11-05T13:56:51.981Z,11.63
2022-11-05T14:00:38.993Z,11.63
2022-11-05T14:03:52.516Z,11.65
2022-11-05T14:07:07.187Z,11.58
2022-11-05T14:10:41.334Z,11.48
2022-11-05T14:13:50.176Z,11.41
2022-11-05T14:17:09.981Z,11.34
2022-11-05T14:20:32.719Z,11.27
2022-11-05T14:23:40.561Z,11.20
2022-11-05T14:27:05.210Z,11.13
2022-11-05T14:30:44.031Z,11.03
2022-11-05T14:34:10.101Z,10.95
2022-11-05T14:37:30.086Z,10.88
2022-11-05T14:40:40.130Z,10.82
2022-11-05T14:43:58.791Z,10.77
2022-11-05T14:47:07.754Z,10.72
2022-11-05T14:50:46.351Z,10.66
2022-11-05T14:53:57.638Z,10.62
2022-11-05T14:57:03.010Z,10.56
2022-11-05T15:00:30.167Z,10.52
2022-11-05T15:04:01.969Z,10.49
2022-11-05T15:07:06.314Z,10.46
2022-11-05T15:10:16.142Z,10.40
2022-11-05T15:13:37.744Z,10.40
2022-11-05T15:16:54.614Z,10.40
2022-11-05T15:20:23.751Z,10.41
2022-11-05T15:23:39.536Z,10.41
2022-11-05T15:26:58.286Z,10.40
2022-11-05T15:30:22.477Z,10.36
2022-11-05T15:33:27.345Z,10.37
2022-11-05T15:36:32.421Z,10.35
2022-11-05T15:39:44.034Z,10.34
2022-11-05T15:43:19.636Z,10.32
2022-11-05T15:46:28.584Z,10.33
2022-11-05T15:49:33.276Z,10.30
2022-11-05T15:52:45.688Z,10.28
2022-11-05T15:55:55.730Z,10.24
2022-11-05T15:59:07.137Z,10.23
2022-11-05T16:02:25.704Z,10.24
2022-11-05T16:05:42.181Z,10.24
2022-11-05T16:08:49.424Z,10.23
2022-11-05T16:12:14.452Z,10.21
2022-11-05T16:15:23.481Z,10.21
2022-11-05T16:18:41.317Z,10.20
2022-11-05T16:21:55.102Z,10.18
2022-11-05T16:24:59.367Z,10.15
2022-11-05T16:28:05.671Z,10.15
2022-11-05T16:31:09.588Z,10.14
2022-11-05T16:34:40.824Z,10.11
2022-11-05T16:37:49.270Z,10.11
2022-11-05T16:40:56.053Z,10.06
2022-11-05T16:44:00.424Z,10.03
2022-11-05T16:47:04.844Z,10.02
2022-11-05T16:50:25.796Z,10.02
2022-11-05T16:53:30.200Z,10.00
2022-11-05T16:56:36.044Z,9.97
2022-11-05T16:59:40.514Z,9.94
2022-11-05T17:02:45.813Z,9.90
2022-11-05T17:05:50.124Z,9.87
2022-11-05T17:08:54.368Z,9.87
2022-11-05T17:12:00.731Z,9.84
2022-11-05T17:15:22.370Z,9.80
2022-11-05T17:18:27.175Z,9.79
2022-11-05T17:21:31.825Z,9.77
2022-11-05T17:24:36.226Z,9.76
2022-11-05T17:27:40.944Z,9.74
2022-11-05T17:30:52.167Z,9.71
2022-11-05T17:33:58.647Z,9.71
2022-11-05T17:37:03.091Z,9.74
2022-11-05T17:40:12.453Z,9.77
2022-11-05T17:43:17.306Z,9.77
2022-11-05T17:46:22.248Z,9.77
2022-11-05T17:49:26.730Z,9.78
2022-11-05T17:52:32.498Z,9.79
2022-11-05T17:55:36.948Z,9.77
2022-11-05T17:58:41.499Z,9.79
2022-11-05T18:01:46.044Z,9.77
2022-11-05T18:04:50.810Z,9.79
2022-11-05T18:07:55.567Z,9.77
2022-11-05T18:11:00.588Z,9.76
2022-11-05T18:14:05.475Z,9.75
2022-11-05T18:17:09.643Z,9.74
2022-11-05T18:20:19.244Z,9.73
2022-11-05T18:23:24.368Z,9.71
2022-11-05T18:26:28.877Z,9.71
2022-11-05T18:29:33.372Z,9.70
2022-11-05T18:32:38.757Z,9.71
2022-11-05T18:35:44.792Z,9.70
2022-11-05T18:38:50.735Z,9.71
2022-11-05T18:41:54.989Z,9.71
2022-11-05T18:44:59.781Z,9.69
2022-11-05T18:48:05.088Z,9.69
2022-11-05T18:51:14.116Z,9.66
2022-11-05T18:54:18.433Z,9.66
2022-11-05T18:57:22.644Z,9.65
2022-11-05T19:00:27.936Z,9.65
2022-11-05T19:03:33.608Z,9.63
2022-11-05T19:06:38.557Z,9.63
2022-11-05T19:09:42.941Z,9.61
2022-11-05T19:12:47.174Z,9.63
2022-11-05T19:15:51.562Z,9.62
2022-11-05T19:19:00.362Z,9.62
2022-11-05T19:22:04.917Z,9.59
2022-11-05T19:25:09.161Z,9.58
2022-11-05T19:28:13.775Z,9.58
2022-11-05T19:31:22.614Z,9.53
2022-11-05T19:34:27.453Z,9.52
2022-11-05T19:37:31.797Z,9.52
2022-11-05T19:40:37.622Z,9.50
2022-11-05T19:43:42.712Z,9.48
2022-11-05T19:46:47.527Z,9.47
2022-11-05T19:49:51.878Z,9.46
2022-11-05T19:52:56.172Z,9.46
2022-11-05T19:56:17.177Z,9.44
2022-11-05T19:59:21.534Z,9.44
2022-11-05T20:02:26.511Z,9.45
2022-11-05T20:05:33.953Z,9.45
2022-11-05T20:08:59.409Z,9.43
2022-11-05T20:12:03.242Z,9.42
2022-11-05T20:15:08.232Z,9.41
2022-11-05T20:18:12.920Z,9.39
2022-11-05T20:21:18.873Z,9.39
2022-11-05T20:24:25.296Z,9.35
2022-11-05T20:27:30.230Z,9.34
2022-11-05T20:30:35.662Z,9.34
2022-11-05T20:33:41.509Z,9.32
2022-11-05T20:36:45.608Z,9.32
2022-11-05T20:39:49.756Z,9.30
2022-11-05T20:42:54.219Z,9.29
2022-11-05T20:45:58.870Z,9.29
2022-11-05T20:49:03.432Z,9.29
2022-11-05T20:52:07.605Z,9.29
2022-11-05T20:55:12.240Z,9.27
2022-11-05T20:58:17.627Z,9.28
2022-11-05T21:01:22.638Z,9.28
2022-11-05T21:04:27.372Z,9.29
2022-11-05T21:07:31.732Z,9.28
2022-11-05T21:10:35.952Z,9.29
2022-11-05T21:13:40.438Z,9.27
2022-11-05T21:16:46.104Z,9.26
2022-11-05T21:19:50.942Z,9.26
2022-11-05T21:22:55.721Z,9.28
2022-11-05T21:26:05.416Z,9.28
2022-11-05T21:29:10.722Z,9.28
2022-11-05T21:32:15.021Z,9.28
2022-11-05T21:35:19.154Z,9.29
2022-11-05T21:38:23.867Z,9.27
2022-11-05T21:41:28.653Z,9.26
2022-11-05T21:44:38.365Z,9.27
2022-11-05T21:47:44.543Z,9.27
2022-11-05T21:51:12.305Z,9.26
2022-11-05T21:54:34.921Z,9.25
2022-11-05T21:57:59.485Z,9.25
2022-11-05T22:01:06.420Z,9.24
2022-11-05T22:04:10.694Z,9.23
2022-11-05T22:07:28.946Z,9.23
2022-11-05T22:10:33.557Z,9.22
2022-11-05T22:13:38.058Z,9.22
2022-11-05T22:16:42.666Z,9.21
2022-11-05T22:19:47.192Z,9.21
2022-11-05T22:22:52.543Z,9.21
2022-11-05T22:26:01.922Z,9.22
2022-11-05T22:29:07.497Z,9.19
2022-11-05T22:32:12.267Z,9.18
2022-11-05T22:35:17.141Z,9.18
2022-11-05T22:38:21.607Z,9.17
2022-11-05T22:41:26.129Z,9.16
2022-11-05T22:44:30.729Z,9.15
2022-11-05T22:47:37.681Z,9.14
2022-11-05T22:50:42.347Z,9.14
2022-11-05T22:53:46.730Z,9.13
2022-11-05T22:56:52.558Z,9.13
2022-11-05T22:59:56.772Z,9.11
2022-11-05T23:03:02.771Z,9.11
2022-11-05T23:06:56.809Z,9.14
2022-11-05T23:10:19.684Z,9.14
2022-11-05T23:13:24.336Z,9.14
2022-11-05T23:16:47.868Z,9.14
2022-11-05T23:20:11.149Z,9.13
2022-11-05T23:23:39.148Z,9.13
2022-11-05T23:26:53.000Z,9.10
2022-11-05T23:30:00.170Z,9.12
2022-11-05T23:33:07.390Z,9.13
2022-11-05T23:36:31.509Z,9.15
2022-11-05T23:39:41.373Z,9.15
2022-11-05T23:43:06.782Z,9.19
2022-11-05T23:46:29.563Z,9.20
2022-11-05T23:49:34.220Z,9.22
2022-11-05T23:52:38.598Z,9.20
2022-11-05T23:55:43.162Z,9.24
2022-11-05T23:58:50.915Z,9.24
